Milton, Indiana
Current Conditions -  °F | °C
As of 5:53 AM on Thursday 27 Nov 2014 (Local Time) from KMIE Reporting Station
Few Clouds Few Clouds  
Wind Chill: 18°   Ceiling: Unl
Heat Index: 27°   Visibility: 8mi
Dew Point: 22°   Wind: 9mph
Humidity: 81%   Direction: 320°NW
Pressure: 30.16"   Gusts: NA
Location:  39.79°N, 85.16°W
Report Text: KMIE 271053Z 32008KT 8SM FEW031 M03/M06 A3016 RMK AO2 SLP221 T10281056
Loading
Personal Weather Stations






























Interactive Weather Map New forecast layout! Learn more

10-Day Weather Forecast

Advertisements
Track Severe Weather on mobile